Aérodrome :
LOGIN :

S'inscrire | Disclaimer

   EN    FR    IT 

 










Légende :    VFR   VFR Marginal   IFR   IFR Intensif   IFR Très Intensif
Visi : 
Plafond : 
>= 8 km
>= 3000ft
5 à 8 km
1000 à 3000 ft
1500m à 5 km
500 à 1000 ft
800 à 1500m
200 à 500 ft
< 800m
< 200 ft
Symboles :   Orages  Brouillard  Fortes neiges  Fortes précipitations  Vent > 20 kt
SIGMETs :   Divers  Orages  Givrage  Turbulence  Onde Orograph.  Cendres Volcan.






- Altitude de l'aérodrome : 20 ft
- Code IATA : LSI


EGPB - Sumburgh

DERNIER METAR :
  • 210020Z AUTO 26030KT 9999 FEW020/// SCT037/// 06/01 Q0991 RERA

METARs EXPIRÉS :
  • 202350Z AUTO 26030KT 9999 FEW018/// SCT034/// 06/01 Q0991 RERA
  • 202320Z AUTO 26032KT 9999 FEW026/// 06/02 Q0990
  • 202250Z AUTO 26035G48KT 9999 FEW016/// SCT048/// 06/02 Q0989 RERA
  • 202220Z AUTO 27039KT 4500 RA SCT021/// 06/01 Q0989 RERA
  • 202150Z AUTO 27025KT 9999 SCT010/// BKN021/// BKN039/// 05/01 Q0989 RERA

TAF TAF EGPB
Valide du 21 à 00h jusqu'au 21 à 09h UTC


202301Z 2100/2109 26028KT 9999 FEW016 SCT030
TEMPO 2100/2103 25035G48KT 3000 SHRA SHGS BKN012CB
BECMG 2103/2106 21032G42KT
TEMPO 2103/2109 6000 RA SHRA BKN012
PROB40
TEMPO 2103/2107 3000 RADZ BKN007
TEMPO 2105/2109 20038G55KT



MET'MAP, la Météo Aéronautique d'un coup d'oeil ! - Copyright ORBIFLY Décembre 2007 - Disclaimer

ORBIFLY MET'MAP TEAM :

Programmation & Développement : Alexandra Zaïnal
Sur une idée originale de : Baudouin d'Aumeries
Assistance à la programmation : Marc-Olivier Méhu
Soutien technique & logistique : Manuel Goepfert

Contact : metmap@orbifly.com




SOURCES & CREDITS :

   NOAA